Hovedside
METAR-TAF:

METAR-TAF

Lufthavner :

Norrköping lufthavn

Norrköping, Sverige

breddegrad: 58-35N, lengdegrad: 016-09E, høyde over havet: 34 m

Gjeldene værobservasjon

Denne rapporten ble laget for 23 minutter siden, klokken 21:50 UTC
Vind 10 kt fra Sørvest
Temperatur 4°C
Luftfuktighet 81%
Trykk 1008 hPa
Sikt 10 km eller mer
Brutte skyer i en høyde av 3100 ft

METAR: ESSP 242150Z 23010KT 9999 BKN031 04/01 Q1008

Tid: 23:13 (22:13 UTC)

Varsel

Denne rapporten ble laget for 1 time og 43 minutter siden, klokken 20:30 UTC
Varsel gyldig fra 24. klokken 21 UTC til 24. klokken 23 UTC
Vind 12 kt fra Vest-sørvest
Sikt 10 km eller mer
Brutte skyer i en høyde av 3500 ft

TAF: ESSP 242030Z 2421/2423 25012KT 9999 BKN035

Værobservasjoner og værvarsel for over 4000 flyplasser (METAR- og TAF-rapporter).

Tilgjengelige stasjoner er representert av de røde og gule prikkene på kartet.

Hold musepekeren over prikken for å se navnet på stasjonen.

Klikk så for å se værobservasjoner og -varsler.

For å forandre kartet kan du klikke på den grønne knappen med svart kryss for å zoome inn, på den grønne knappen med strek for å zoome ut, eller på de grønne pilene for å se tilstøtende kart.


METAR-TAF: